sensor_id;sensor_type;location;lat;lon;timestamp;temperature;humidity
51557;DHT22;38766;53.194;5.532;2023-05-07T00:00:22;14.60;99.90
51557;DHT22;38766;53.194;5.532;2023-05-07T00:02:48;14.60;99.90
51557;DHT22;38766;53.194;5.532;2023-05-07T00:05:13;14.60;99.90
51557;DHT22;38766;53.194;5.532;2023-05-07T00:07:39;14.50;99.90
51557;DHT22;38766;53.194;5.532;2023-05-07T00:10:06;14.50;99.90
51557;DHT22;38766;53.194;5.532;2023-05-07T00:12:32;14.50;99.90
51557;DHT22;38766;53.194;5.532;2023-05-07T00:15:04;14.50;99.90
51557;DHT22;38766;53.194;5.532;2023-05-07T00:17:33;14.50;99.90
51557;DHT22;38766;53.194;5.532;2023-05-07T00:19:59;14.50;99.90
51557;DHT22;38766;53.194;5.532;2023-05-07T00:22:25;14.40;99.90
51557;DHT22;38766;53.194;5.532;2023-05-07T00:24:50;14.40;99.90
51557;DHT22;38766;53.194;5.532;2023-05-07T00:27:16;14.40;99.90
51557;DHT22;38766;53.194;5.532;2023-05-07T00:29:42;14.40;99.90
51557;DHT22;38766;53.194;5.532;2023-05-07T00:32:08;14.40;99.90
51557;DHT22;38766;53.194;5.532;2023-05-07T00:34:34;14.40;99.90
51557;DHT22;38766;53.194;5.532;2023-05-07T00:37:00;14.30;99.90
51557;DHT22;38766;53.194;5.532;2023-05-07T00:39:26;14.30;99.90
51557;DHT22;38766;53.194;5.532;2023-05-07T00:41:52;14.30;99.90
51557;DHT22;38766;53.194;5.532;2023-05-07T00:44:17;14.30;99.90
51557;DHT22;38766;53.194;5.532;2023-05-07T00:46:43;14.30;99.90
51557;DHT22;38766;53.194;5.532;2023-05-07T00:49:10;14.20;99.90
51557;DHT22;38766;53.194;5.532;2023-05-07T00:51:36;14.30;99.90
51557;DHT22;38766;53.194;5.532;2023-05-07T00:54:02;14.20;99.90
51557;DHT22;38766;53.194;5.532;2023-05-07T00:56:28;14.20;99.90
51557;DHT22;38766;53.194;5.532;2023-05-07T00:58:54;14.20;99.90
51557;DHT22;38766;53.194;5.532;2023-05-07T01:01:20;14.10;99.90
51557;DHT22;38766;53.194;5.532;2023-05-07T01:03:46;14.10;99.90
51557;DHT22;38766;53.194;5.532;2023-05-07T01:06:12;14.00;99.90
51557;DHT22;38766;53.194;5.532;2023-05-07T01:08:39;14.00;99.90
51557;DHT22;38766;53.194;5.532;2023-05-07T01:11:07;14.00;99.90
51557;DHT22;38766;53.194;5.532;2023-05-07T01:13:35;13.90;99.90
51557;DHT22;38766;53.194;5.532;2023-05-07T01:16:01;13.90;99.90
51557;DHT22;38766;53.194;5.532;2023-05-07T01:18:27;13.80;99.90
51557;DHT22;38766;53.194;5.532;2023-05-07T01:20:58;13.80;99.90
51557;DHT22;38766;53.194;5.532;2023-05-07T01:23:25;13.80;99.90
51557;DHT22;38766;53.194;5.532;2023-05-07T01:25:53;13.80;99.90
51557;DHT22;38766;53.194;5.532;2023-05-07T01:28:19;13.80;99.90
51557;DHT22;38766;53.194;5.532;2023-05-07T01:30:49;13.80;99.90
51557;DHT22;38766;53.194;5.532;2023-05-07T01:33:19;13.80;99.90
51557;DHT22;38766;53.194;5.532;2023-05-07T01:35:50;13.80;99.90
51557;DHT22;38766;53.194;5.532;2023-05-07T01:38:17;13.70;99.90
51557;DHT22;38766;53.194;5.532;2023-05-07T01:40:43;13.70;99.90
51557;DHT22;38766;53.194;5.532;2023-05-07T01:43:09;13.70;99.90
51557;DHT22;38766;53.194;5.532;2023-05-07T01:45:36;13.70;99.90
51557;DHT22;38766;53.194;5.532;2023-05-07T01:48:02;13.60;99.90
51557;DHT22;38766;53.194;5.532;2023-05-07T01:50:30;13.60;99.90
51557;DHT22;38766;53.194;5.532;2023-05-07T01:52:56;13.60;99.90
51557;DHT22;38766;53.194;5.532;2023-05-07T01:55:22;13.50;99.90
51557;DHT22;38766;53.194;5.532;2023-05-07T01:57:48;13.50;99.90
51557;DHT22;38766;53.194;5.532;2023-05-07T02:00:13;13.50;99.90
51557;DHT22;38766;53.194;5.532;2023-05-07T02:02:39;13.50;99.90
51557;DHT22;38766;53.194;5.532;2023-05-07T02:05:05;13.50;99.90
51557;DHT22;38766;53.194;5.532;2023-05-07T02:07:31;13.50;99.90
51557;DHT22;38766;53.194;5.532;2023-05-07T02:09:57;13.40;99.90
51557;DHT22;38766;53.194;5.532;2023-05-07T02:12:23;13.50;99.90
51557;DHT22;38766;53.194;5.532;2023-05-07T02:14:49;13.50;99.90
51557;DHT22;38766;53.194;5.532;2023-05-07T02:17:14;13.40;99.90
51557;DHT22;38766;53.194;5.532;2023-05-07T02:19:40;13.30;99.90
51557;DHT22;38766;53.194;5.532;2023-05-07T02:22:06;13.40;99.90
51557;DHT22;38766;53.194;5.532;2023-05-07T02:24:32;13.40;99.90
51557;DHT22;38766;53.194;5.532;2023-05-07T02:26:58;13.40;99.90
51557;DHT22;38766;53.194;5.532;2023-05-07T02:29:23;13.40;99.90
51557;DHT22;38766;53.194;5.532;2023-05-07T02:31:50;13.30;99.90
51557;DHT22;38766;53.194;5.532;2023-05-07T02:34:18;13.30;99.90
51557;DHT22;38766;53.194;5.532;2023-05-07T02:36:44;13.30;99.90
51557;DHT22;38766;53.194;5.532;2023-05-07T02:39:09;13.30;99.90
51557;DHT22;38766;53.194;5.532;2023-05-07T02:41:35;13.30;99.90
51557;DHT22;38766;53.194;5.532;2023-05-07T02:44:01;13.30;99.90
51557;DHT22;38766;53.194;5.532;2023-05-07T02:46:26;13.30;99.90
51557;DHT22;38766;53.194;5.532;2023-05-07T02:48:52;13.30;99.90
51557;DHT22;38766;53.194;5.532;2023-05-07T02:51:20;13.30;99.90
51557;DHT22;38766;53.194;5.532;2023-05-07T02:53:47;13.30;99.90
51557;DHT22;38766;53.194;5.532;2023-05-07T02:56:12;13.20;99.90
51557;DHT22;38766;53.194;5.532;2023-05-07T02:58:38;13.30;99.90
51557;DHT22;38766;53.194;5.532;2023-05-07T03:01:10;13.30;99.90
51557;DHT22;38766;53.194;5.532;2023-05-07T03:03:36;13.30;99.90
51557;DHT22;38766;53.194;5.532;2023-05-07T03:06:02;13.20;99.90
51557;DHT22;38766;53.194;5.532;2023-05-07T03:08:28;13.20;99.90
51557;DHT22;38766;53.194;5.532;2023-05-07T03:10:54;13.30;99.90
51557;DHT22;38766;53.194;5.532;2023-05-07T03:13:20;13.20;99.90
51557;DHT22;38766;53.194;5.532;2023-05-07T03:15:46;13.10;99.90
51557;DHT22;38766;53.194;5.532;2023-05-07T03:18:12;13.20;99.90
51557;DHT22;38766;53.194;5.532;2023-05-07T03:20:37;13.20;99.90
51557;DHT22;38766;53.194;5.532;2023-05-07T03:23:03;13.10;99.90
51557;DHT22;38766;53.194;5.532;2023-05-07T03:25:29;13.20;99.90
51557;DHT22;38766;53.194;5.532;2023-05-07T03:27:57;13.10;99.90
51557;DHT22;38766;53.194;5.532;2023-05-07T03:30:23;13.10;99.90
51557;DHT22;38766;53.194;5.532;2023-05-07T03:32:49;13.10;99.90
51557;DHT22;38766;53.194;5.532;2023-05-07T03:35:14;13.10;99.90
51557;DHT22;38766;53.194;5.532;2023-05-07T03:37:40;13.10;99.90
51557;DHT22;38766;53.194;5.532;2023-05-07T03:40:06;13.00;99.90
51557;DHT22;38766;53.194;5.532;2023-05-07T03:42:33;13.00;99.90
51557;DHT22;38766;53.194;5.532;2023-05-07T03:44:59;13.00;99.90
51557;DHT22;38766;53.194;5.532;2023-05-07T03:47:24;13.00;99.90
51557;DHT22;38766;53.194;5.532;2023-05-07T03:49:50;13.00;99.90
51557;DHT22;38766;53.194;5.532;2023-05-07T03:52:18;13.00;99.90
51557;DHT22;38766;53.194;5.532;2023-05-07T03:54:48;12.90;99.90
51557;DHT22;38766;53.194;5.532;2023-05-07T03:57:14;12.90;99.90
51557;DHT22;38766;53.194;5.532;2023-05-07T03:59:39;12.90;99.90
51557;DHT22;38766;53.194;5.532;2023-05-07T04:02:05;12.90;99.90
51557;DHT22;38766;53.194;5.532;2023-05-07T04:04:31;12.90;99.90
51557;DHT22;38766;53.194;5.532;2023-05-07T04:06:58;12.80;99.90
51557;DHT22;38766;53.194;5.532;2023-05-07T04:09:24;12.80;99.90
51557;DHT22;38766;53.194;5.532;2023-05-07T04:11:50;12.70;99.90
51557;DHT22;38766;53.194;5.532;2023-05-07T04:14:16;12.70;99.90
51557;DHT22;38766;53.194;5.532;2023-05-07T04:16:42;12.70;99.90
51557;DHT22;38766;53.194;5.532;2023-05-07T04:19:07;12.60;99.90
51557;DHT22;38766;53.194;5.532;2023-05-07T04:21:33;12.60;99.90
51557;DHT22;38766;53.194;5.532;2023-05-07T04:23:58;12.60;99.90
51557;DHT22;38766;53.194;5.532;2023-05-07T04:26:24;12.60;99.90
51557;DHT22;38766;53.194;5.532;2023-05-07T04:28:50;12.50;99.90
51557;DHT22;38766;53.194;5.532;2023-05-07T04:31:16;12.60;99.90
51557;DHT22;38766;53.194;5.532;2023-05-07T04:33:41;12.60;99.90
51557;DHT22;38766;53.194;5.532;2023-05-07T04:36:07;12.60;99.90
51557;DHT22;38766;53.194;5.532;2023-05-07T04:38:33;12.60;99.90
51557;DHT22;38766;53.194;5.532;2023-05-07T04:41:03;12.60;99.90
51557;DHT22;38766;53.194;5.532;2023-05-07T04:43:29;12.60;99.90
51557;DHT22;38766;53.194;5.532;2023-05-07T04:45:55;12.60;99.90
51557;DHT22;38766;53.194;5.532;2023-05-07T04:48:20;12.50;99.90
51557;DHT22;38766;53.194;5.532;2023-05-07T04:50:52;12.60;99.90
51557;DHT22;38766;53.194;5.532;2023-05-07T04:53:18;12.50;99.90
51557;DHT22;38766;53.194;5.532;2023-05-07T04:55:44;12.50;99.90
51557;DHT22;38766;53.194;5.532;2023-05-07T04:58:13;12.50;99.90
51557;DHT22;38766;53.194;5.532;2023-05-07T05:00:39;12.50;99.90
51557;DHT22;38766;53.194;5.532;2023-05-07T05:03:06;12.40;99.90
51557;DHT22;38766;53.194;5.532;2023-05-07T05:05:32;12.40;99.90
51557;DHT22;38766;53.194;5.532;2023-05-07T05:07:58;12.50;99.90
51557;DHT22;38766;53.194;5.532;2023-05-07T05:10:24;12.40;99.90
51557;DHT22;38766;53.194;5.532;2023-05-07T05:12:50;12.30;99.90
51557;DHT22;38766;53.194;5.532;2023-05-07T05:15:15;12.30;99.90
51557;DHT22;38766;53.194;5.532;2023-05-07T05:17:41;12.30;99.90
51557;DHT22;38766;53.194;5.532;2023-05-07T05:20:07;12.30;99.90
51557;DHT22;38766;53.194;5.532;2023-05-07T05:22:32;12.30;99.90
51557;DHT22;38766;53.194;5.532;2023-05-07T05:24:58;12.20;99.90
51557;DHT22;38766;53.194;5.532;2023-05-07T05:27:24;12.20;99.90
51557;DHT22;38766;53.194;5.532;2023-05-07T05:29:49;12.30;99.90
51557;DHT22;38766;53.194;5.532;2023-05-07T05:32:15;12.20;99.90
51557;DHT22;38766;53.194;5.532;2023-05-07T05:34:41;12.30;99.90
51557;DHT22;38766;53.194;5.532;2023-05-07T05:37:06;12.30;99.90
51557;DHT22;38766;53.194;5.532;2023-05-07T05:39:32;12.20;99.90
51557;DHT22;38766;53.194;5.532;2023-05-07T05:41:57;12.20;99.90
51557;DHT22;38766;53.194;5.532;2023-05-07T05:44:23;12.30;99.90
51557;DHT22;38766;53.194;5.532;2023-05-07T05:46:48;12.20;99.90
51557;DHT22;38766;53.194;5.532;2023-05-07T05:49:20;12.20;99.90
51557;DHT22;38766;53.194;5.532;2023-05-07T05:51:45;12.20;99.90
51557;DHT22;38766;53.194;5.532;2023-05-07T05:54:14;12.30;99.90
51557;DHT22;38766;53.194;5.532;2023-05-07T05:56:41;12.30;99.90
51557;DHT22;38766;53.194;5.532;2023-05-07T05:59:06;12.30;99.90
51557;DHT22;38766;53.194;5.532;2023-05-07T06:01:32;12.30;99.90
51557;DHT22;38766;53.194;5.532;2023-05-07T06:03:58;12.20;99.90
51557;DHT22;38766;53.194;5.532;2023-05-07T06:06:24;12.20;99.90
51557;DHT22;38766;53.194;5.532;2023-05-07T06:08:49;12.30;99.90
51557;DHT22;38766;53.194;5.532;2023-05-07T06:11:15;12.30;99.90
51557;DHT22;38766;53.194;5.532;2023-05-07T06:13:40;12.30;99.90
51557;DHT22;38766;53.194;5.532;2023-05-07T06:16:06;12.30;99.90
51557;DHT22;38766;53.194;5.532;2023-05-07T06:18:32;12.30;99.90
51557;DHT22;38766;53.194;5.532;2023-05-07T06:20:58;12.30;99.90
51557;DHT22;38766;53.194;5.532;2023-05-07T06:23:23;12.30;99.90
51557;DHT22;38766;53.194;5.532;2023-05-07T06:25:49;12.30;99.90
51557;DHT22;38766;53.194;5.532;2023-05-07T06:28:18;12.40;99.90
51557;DHT22;38766;53.194;5.532;2023-05-07T06:30:43;12.40;99.90
51557;DHT22;38766;53.194;5.532;2023-05-07T06:33:09;12.40;99.90
51557;DHT22;38766;53.194;5.532;2023-05-07T06:35:35;12.40;99.90
51557;DHT22;38766;53.194;5.532;2023-05-07T06:38:00;12.40;99.90
51557;DHT22;38766;53.194;5.532;2023-05-07T06:40:26;12.50;99.90
51557;DHT22;38766;53.194;5.532;2023-05-07T06:42:52;12.50;99.90
51557;DHT22;38766;53.194;5.532;2023-05-07T06:45:18;12.50;99.90
51557;DHT22;38766;53.194;5.532;2023-05-07T06:47:44;12.50;99.90
51557;DHT22;38766;53.194;5.532;2023-05-07T06:50:10;12.50;99.90
51557;DHT22;38766;53.194;5.532;2023-05-07T06:52:35;12.60;99.90
51557;DHT22;38766;53.194;5.532;2023-05-07T06:55:01;12.50;99.90
51557;DHT22;38766;53.194;5.532;2023-05-07T06:57:27;12.60;99.90
51557;DHT22;38766;53.194;5.532;2023-05-07T06:59:52;12.60;99.90
51557;DHT22;38766;53.194;5.532;2023-05-07T07:02:19;12.60;99.90
51557;DHT22;38766;53.194;5.532;2023-05-07T07:04:44;12.60;99.90
51557;DHT22;38766;53.194;5.532;2023-05-07T07:07:10;12.70;99.90
51557;DHT22;38766;53.194;5.532;2023-05-07T07:09:36;12.70;99.90
51557;DHT22;38766;53.194;5.532;2023-05-07T07:12:02;12.70;99.90
51557;DHT22;38766;53.194;5.532;2023-05-07T07:14:34;12.80;99.90
51557;DHT22;38766;53.194;5.532;2023-05-07T07:16:59;12.80;99.90
51557;DHT22;38766;53.194;5.532;2023-05-07T07:19:26;12.90;99.90
51557;DHT22;38766;53.194;5.532;2023-05-07T07:21:51;13.00;99.90
51557;DHT22;38766;53.194;5.532;2023-05-07T07:24:17;13.00;99.90
51557;DHT22;38766;53.194;5.532;2023-05-07T07:26:46;13.00;99.90
51557;DHT22;38766;53.194;5.532;2023-05-07T07:29:12;13.10;99.90
51557;DHT22;38766;53.194;5.532;2023-05-07T07:31:37;13.10;99.90
51557;DHT22;38766;53.194;5.532;2023-05-07T07:34:03;13.10;99.90
51557;DHT22;38766;53.194;5.532;2023-05-07T07:36:29;13.10;99.90
51557;DHT22;38766;53.194;5.532;2023-05-07T07:38:55;13.10;99.90
51557;DHT22;38766;53.194;5.532;2023-05-07T07:41:21;13.20;99.90
51557;DHT22;38766;53.194;5.532;2023-05-07T07:43:46;13.30;99.90
51557;DHT22;38766;53.194;5.532;2023-05-07T07:46:12;13.30;99.90
51557;DHT22;38766;53.194;5.532;2023-05-07T07:48:38;13.30;99.90
51557;DHT22;38766;53.194;5.532;2023-05-07T07:51:04;13.30;99.90
51557;DHT22;38766;53.194;5.532;2023-05-07T07:53:30;13.30;99.90
51557;DHT22;38766;53.194;5.532;2023-05-07T07:55:55;13.30;99.90
51557;DHT22;38766;53.194;5.532;2023-05-07T07:58:21;13.40;99.90
51557;DHT22;38766;53.194;5.532;2023-05-07T08:00:47;13.40;99.90
51557;DHT22;38766;53.194;5.532;2023-05-07T08:03:13;13.40;99.90
51557;DHT22;38766;53.194;5.532;2023-05-07T08:05:44;13.40;99.90
51557;DHT22;38766;53.194;5.532;2023-05-07T08:08:09;13.50;99.90
51557;DHT22;38766;53.194;5.532;2023-05-07T08:10:35;13.60;99.90
51557;DHT22;38766;53.194;5.532;2023-05-07T08:13:03;13.60;99.90
51557;DHT22;38766;53.194;5.532;2023-05-07T08:15:29;13.70;99.90
51557;DHT22;38766;53.194;5.532;2023-05-07T08:17:55;13.70;99.90
51557;DHT22;38766;53.194;5.532;2023-05-07T08:20:23;13.80;99.90
51557;DHT22;38766;53.194;5.532;2023-05-07T08:22:48;13.90;99.90
51557;DHT22;38766;53.194;5.532;2023-05-07T08:25:14;14.00;99.90
51557;DHT22;38766;53.194;5.532;2023-05-07T08:27:40;14.10;99.90
51557;DHT22;38766;53.194;5.532;2023-05-07T08:30:06;14.20;99.90
51557;DHT22;38766;53.194;5.532;2023-05-07T08:32:32;14.40;99.90
51557;DHT22;38766;53.194;5.532;2023-05-07T08:34:57;14.50;99.90
51557;DHT22;38766;53.194;5.532;2023-05-07T08:37:23;14.60;99.90
51557;DHT22;38766;53.194;5.532;2023-05-07T08:39:49;14.80;99.90
51557;DHT22;38766;53.194;5.532;2023-05-07T08:42:19;14.90;99.90
51557;DHT22;38766;53.194;5.532;2023-05-07T08:44:46;15.10;99.90
51557;DHT22;38766;53.194;5.532;2023-05-07T08:47:14;15.30;99.90
51557;DHT22;38766;53.194;5.532;2023-05-07T08:49:40;15.50;99.90
51557;DHT22;38766;53.194;5.532;2023-05-07T08:52:06;15.60;99.90
51557;DHT22;38766;53.194;5.532;2023-05-07T08:54:32;15.80;99.90
51557;DHT22;38766;53.194;5.532;2023-05-07T08:56:59;15.90;99.90
51557;DHT22;38766;53.194;5.532;2023-05-07T08:59:25;16.20;99.90
51557;DHT22;38766;53.194;5.532;2023-05-07T09:01:51;16.30;99.90
51557;DHT22;38766;53.194;5.532;2023-05-07T09:04:19;16.30;99.90
51557;DHT22;38766;53.194;5.532;2023-05-07T09:06:45;16.40;99.90
51557;DHT22;38766;53.194;5.532;2023-05-07T09:09:14;16.40;99.90
51557;DHT22;38766;53.194;5.532;2023-05-07T09:11:42;16.50;99.90
51557;DHT22;38766;53.194;5.532;2023-05-07T09:14:08;16.50;99.90
51557;DHT22;38766;53.194;5.532;2023-05-07T09:16:34;16.60;99.90
51557;DHT22;38766;53.194;5.532;2023-05-07T09:19:00;16.60;99.90
51557;DHT22;38766;53.194;5.532;2023-05-07T09:21:26;16.70;99.90
51557;DHT22;38766;53.194;5.532;2023-05-07T09:23:54;16.60;99.90
51557;DHT22;38766;53.194;5.532;2023-05-07T09:26:23;16.50;99.90
51557;DHT22;38766;53.194;5.532;2023-05-07T09:28:50;16.50;99.90
51557;DHT22;38766;53.194;5.532;2023-05-07T09:31:15;16.50;99.90
51557;DHT22;38766;53.194;5.532;2023-05-07T09:33:41;16.50;99.90
51557;DHT22;38766;53.194;5.532;2023-05-07T09:36:08;16.50;99.90
51557;DHT22;38766;53.194;5.532;2023-05-07T09:38:36;16.50;99.90
51557;DHT22;38766;53.194;5.532;2023-05-07T09:41:07;16.60;99.90
51557;DHT22;38766;53.194;5.532;2023-05-07T09:43:34;16.80;99.90
51557;DHT22;38766;53.194;5.532;2023-05-07T09:46:06;17.00;99.90
51557;DHT22;38766;53.194;5.532;2023-05-07T09:48:36;17.00;99.90
51557;DHT22;38766;53.194;5.532;2023-05-07T09:51:03;17.00;99.90
51557;DHT22;38766;53.194;5.532;2023-05-07T09:53:33;16.80;99.90
51557;DHT22;38766;53.194;5.532;2023-05-07T09:55:59;16.80;99.90
51557;DHT22;38766;53.194;5.532;2023-05-07T09:58:26;16.90;99.90
51557;DHT22;38766;53.194;5.532;2023-05-07T10:00:52;16.80;99.90
51557;DHT22;38766;53.194;5.532;2023-05-07T10:03:19;16.90;99.90
51557;DHT22;38766;53.194;5.532;2023-05-07T10:05:46;16.80;99.90
51557;DHT22;38766;53.194;5.532;2023-05-07T10:08:13;16.90;99.90
51557;DHT22;38766;53.194;5.532;2023-05-07T10:10:40;16.90;99.90
51557;DHT22;38766;53.194;5.532;2023-05-07T10:13:06;17.00;99.90
51557;DHT22;38766;53.194;5.532;2023-05-07T10:15:36;17.20;99.90
51557;DHT22;38766;53.194;5.532;2023-05-07T10:18:06;17.30;99.90
51557;DHT22;38766;53.194;5.532;2023-05-07T10:20:33;17.50;99.90
51557;DHT22;38766;53.194;5.532;2023-05-07T10:23:04;17.70;99.90
51557;DHT22;38766;53.194;5.532;2023-05-07T10:25:31;17.90;99.90
51557;DHT22;38766;53.194;5.532;2023-05-07T10:28:03;18.10;99.90
51557;DHT22;38766;53.194;5.532;2023-05-07T10:33:04;18.20;99.90
51557;DHT22;38766;53.194;5.532;2023-05-07T10:35:37;18.30;99.90
51557;DHT22;38766;53.194;5.532;2023-05-07T10:38:04;18.40;99.90
51557;DHT22;38766;53.194;5.532;2023-05-07T10:40:31;18.40;99.90
51557;DHT22;38766;53.194;5.532;2023-05-07T10:43:01;18.50;99.90
51557;DHT22;38766;53.194;5.532;2023-05-07T10:45:28;18.60;99.90
51557;DHT22;38766;53.194;5.532;2023-05-07T10:50:32;18.70;99.90
51557;DHT22;38766;53.194;5.532;2023-05-07T10:55:43;18.70;99.90
51557;DHT22;38766;53.194;5.532;2023-05-07T11:03:13;18.80;99.90
51557;DHT22;38766;53.194;5.532;2023-05-07T11:05:41;18.70;99.90
51557;DHT22;38766;53.194;5.532;2023-05-07T11:08:07;18.80;99.90
51557;DHT22;38766;53.194;5.532;2023-05-07T11:10:53;18.80;99.90
51557;DHT22;38766;53.194;5.532;2023-05-07T11:13:48;18.90;99.90
51557;DHT22;38766;53.194;5.532;2023-05-07T11:16:25;18.80;99.90
51557;DHT22;38766;53.194;5.532;2023-05-07T11:18:55;18.80;99.90
51557;DHT22;38766;53.194;5.532;2023-05-07T11:21:35;18.80;99.90
51557;DHT22;38766;53.194;5.532;2023-05-07T11:24:02;18.90;99.90
51557;DHT22;38766;53.194;5.532;2023-05-07T11:26:31;18.90;99.90
51557;DHT22;38766;53.194;5.532;2023-05-07T11:28:57;18.90;99.90
51557;DHT22;38766;53.194;5.532;2023-05-07T11:31:25;18.90;99.90
51557;DHT22;38766;53.194;5.532;2023-05-07T11:33:53;19.00;99.90
51557;DHT22;38766;53.194;5.532;2023-05-07T11:36:20;19.20;99.90
51557;DHT22;38766;53.194;5.532;2023-05-07T11:38:46;19.20;99.90
51557;DHT22;38766;53.194;5.532;2023-05-07T11:41:12;19.30;99.90
51557;DHT22;38766;53.194;5.532;2023-05-07T11:43:40;19.50;99.90
51557;DHT22;38766;53.194;5.532;2023-05-07T11:46:20;19.50;99.90
51557;DHT22;38766;53.194;5.532;2023-05-07T11:48:45;19.60;99.90
51557;DHT22;38766;53.194;5.532;2023-05-07T11:51:11;19.70;99.90
51557;DHT22;38766;53.194;5.532;2023-05-07T11:53:41;19.80;99.90
51557;DHT22;38766;53.194;5.532;2023-05-07T11:56:09;19.80;99.90
51557;DHT22;38766;53.194;5.532;2023-05-07T11:58:35;19.80;99.90
51557;DHT22;38766;53.194;5.532;2023-05-07T12:01:02;19.80;99.90
51557;DHT22;38766;53.194;5.532;2023-05-07T12:03:27;20.00;99.90
51557;DHT22;38766;53.194;5.532;2023-05-07T12:05:53;20.00;99.90
51557;DHT22;38766;53.194;5.532;2023-05-07T12:08:20;20.00;99.90
51557;DHT22;38766;53.194;5.532;2023-05-07T12:10:48;20.00;99.90
51557;DHT22;38766;53.194;5.532;2023-05-07T12:15:40;20.10;99.90
51557;DHT22;38766;53.194;5.532;2023-05-07T12:18:06;20.20;99.90
51557;DHT22;38766;53.194;5.532;2023-05-07T12:20:34;20.20;99.90
51557;DHT22;38766;53.194;5.532;2023-05-07T12:23:01;20.30;99.90
51557;DHT22;38766;53.194;5.532;2023-05-07T12:25:29;20.40;99.90
51557;DHT22;38766;53.194;5.532;2023-05-07T12:27:55;20.50;99.90
51557;DHT22;38766;53.194;5.532;2023-05-07T12:30:23;20.50;99.90
51557;DHT22;38766;53.194;5.532;2023-05-07T12:32:55;20.50;99.90
51557;DHT22;38766;53.194;5.532;2023-05-07T12:35:47;20.50;99.90
51557;DHT22;38766;53.194;5.532;2023-05-07T12:38:15;20.50;99.90
51557;DHT22;38766;53.194;5.532;2023-05-07T12:40:54;20.50;99.90
51557;DHT22;38766;53.194;5.532;2023-05-07T12:43:23;20.40;99.90
51557;DHT22;38766;53.194;5.532;2023-05-07T12:45:50;20.40;99.90
51557;DHT22;38766;53.194;5.532;2023-05-07T12:48:17;20.40;99.90
51557;DHT22;38766;53.194;5.532;2023-05-07T12:50:44;20.50;99.90
51557;DHT22;38766;53.194;5.532;2023-05-07T12:53:11;20.60;99.90
51557;DHT22;38766;53.194;5.532;2023-05-07T12:55:45;20.60;99.90
51557;DHT22;38766;53.194;5.532;2023-05-07T12:58:17;20.70;99.90
51557;DHT22;38766;53.194;5.532;2023-05-07T13:00:44;20.70;99.90
51557;DHT22;38766;53.194;5.532;2023-05-07T13:03:11;20.70;99.90
51557;DHT22;38766;53.194;5.532;2023-05-07T13:05:37;20.80;99.90
51557;DHT22;38766;53.194;5.532;2023-05-07T13:08:03;20.80;99.90
51557;DHT22;38766;53.194;5.532;2023-05-07T13:10:29;20.90;99.90
51557;DHT22;38766;53.194;5.532;2023-05-07T13:12:55;20.90;99.90
51557;DHT22;38766;53.194;5.532;2023-05-07T13:15:21;20.90;99.90
51557;DHT22;38766;53.194;5.532;2023-05-07T13:17:47;20.80;99.90
51557;DHT22;38766;53.194;5.532;2023-05-07T13:20:12;20.90;99.90
51557;DHT22;38766;53.194;5.532;2023-05-07T13:22:39;20.90;99.90
51557;DHT22;38766;53.194;5.532;2023-05-07T13:25:05;20.80;99.90
51557;DHT22;38766;53.194;5.532;2023-05-07T13:27:31;20.70;99.90
51557;DHT22;38766;53.194;5.532;2023-05-07T13:29:57;20.60;99.90
51557;DHT22;38766;53.194;5.532;2023-05-07T13:32:22;20.50;99.90
51557;DHT22;38766;53.194;5.532;2023-05-07T13:34:48;20.50;99.90
51557;DHT22;38766;53.194;5.532;2023-05-07T13:37:13;20.60;99.90
51557;DHT22;38766;53.194;5.532;2023-05-07T13:39:39;20.60;99.90
51557;DHT22;38766;53.194;5.532;2023-05-07T13:42:06;20.60;99.90
51557;DHT22;38766;53.194;5.532;2023-05-07T13:44:32;20.70;99.90
51557;DHT22;38766;53.194;5.532;2023-05-07T13:46:58;20.70;99.90
51557;DHT22;38766;53.194;5.532;2023-05-07T13:49:24;20.70;99.90
51557;DHT22;38766;53.194;5.532;2023-05-07T13:51:49;20.80;99.90
51557;DHT22;38766;53.194;5.532;2023-05-07T13:54:15;20.80;99.90
51557;DHT22;38766;53.194;5.532;2023-05-07T13:56:41;20.80;99.90
51557;DHT22;38766;53.194;5.532;2023-05-07T13:59:07;20.70;99.90
51557;DHT22;38766;53.194;5.532;2023-05-07T14:01:33;20.80;99.90
51557;DHT22;38766;53.194;5.532;2023-05-07T14:03:58;20.80;99.90
51557;DHT22;38766;53.194;5.532;2023-05-07T14:06:24;20.70;99.90
51557;DHT22;38766;53.194;5.532;2023-05-07T14:08:50;20.70;99.90
51557;DHT22;38766;53.194;5.532;2023-05-07T14:11:16;20.70;99.90
51557;DHT22;38766;53.194;5.532;2023-05-07T14:13:41;20.70;99.90
51557;DHT22;38766;53.194;5.532;2023-05-07T14:16:07;20.70;99.90
51557;DHT22;38766;53.194;5.532;2023-05-07T14:18:33;20.60;99.90
51557;DHT22;38766;53.194;5.532;2023-05-07T14:20:59;20.60;99.90
51557;DHT22;38766;53.194;5.532;2023-05-07T14:23:25;20.50;99.90
51557;DHT22;38766;53.194;5.532;2023-05-07T14:25:52;20.50;99.90
51557;DHT22;38766;53.194;5.532;2023-05-07T14:28:19;20.50;99.90
51557;DHT22;38766;53.194;5.532;2023-05-07T14:30:44;20.40;99.90
51557;DHT22;38766;53.194;5.532;2023-05-07T14:33:10;20.50;99.90
51557;DHT22;38766;53.194;5.532;2023-05-07T14:35:36;20.40;99.90
51557;DHT22;38766;53.194;5.532;2023-05-07T14:38:01;20.40;99.90
51557;DHT22;38766;53.194;5.532;2023-05-07T14:40:27;20.40;99.90
51557;DHT22;38766;53.194;5.532;2023-05-07T14:42:55;20.40;99.90
51557;DHT22;38766;53.194;5.532;2023-05-07T14:45:22;20.40;99.90
51557;DHT22;38766;53.194;5.532;2023-05-07T14:47:48;20.40;99.90
51557;DHT22;38766;53.194;5.532;2023-05-07T14:50:16;20.40;99.90
51557;DHT22;38766;53.194;5.532;2023-05-07T14:52:43;20.40;99.90
51557;DHT22;38766;53.194;5.532;2023-05-07T14:55:08;20.40;99.90
51557;DHT22;38766;53.194;5.532;2023-05-07T14:57:34;20.40;99.90
51557;DHT22;38766;53.194;5.532;2023-05-07T15:00:03;20.40;99.90
51557;DHT22;38766;53.194;5.532;2023-05-07T15:02:29;20.40;99.90
51557;DHT22;38766;53.194;5.532;2023-05-07T15:04:55;20.40;99.90
51557;DHT22;38766;53.194;5.532;2023-05-07T15:07:21;20.30;99.90
51557;DHT22;38766;53.194;5.532;2023-05-07T15:09:46;20.30;99.90
51557;DHT22;38766;53.194;5.532;2023-05-07T15:12:13;20.30;99.90
51557;DHT22;38766;53.194;5.532;2023-05-07T15:14:39;20.30;99.90
51557;DHT22;38766;53.194;5.532;2023-05-07T15:17:05;20.20;99.90
51557;DHT22;38766;53.194;5.532;2023-05-07T15:19:30;20.20;99.90
51557;DHT22;38766;53.194;5.532;2023-05-07T15:21:59;20.20;99.90
51557;DHT22;38766;53.194;5.532;2023-05-07T15:24:28;20.10;99.90
51557;DHT22;38766;53.194;5.532;2023-05-07T15:26:54;20.00;99.90
51557;DHT22;38766;53.194;5.532;2023-05-07T15:29:20;20.00;99.90
51557;DHT22;38766;53.194;5.532;2023-05-07T15:31:46;20.00;99.90
51557;DHT22;38766;53.194;5.532;2023-05-07T15:34:12;20.00;99.90
51557;DHT22;38766;53.194;5.532;2023-05-07T15:36:40;20.00;99.90
51557;DHT22;38766;53.194;5.532;2023-05-07T15:39:06;19.90;99.90
51557;DHT22;38766;53.194;5.532;2023-05-07T15:41:31;19.90;99.90